Time;durP1;ratioP1;P1;durP2;ratioP2;P2;SDS_P1;SDS_P2;PMS_P1;PMS_P2;Temp;Humidity;BMP_temperature;BMP_pressure;BME280_temperature;BME280_humidity;BME280_pressure;Samples;Min_cycle;Max_cycle;Signal;HPM_P1;HPM_P2
2022/09/09 00:02:43;;;;;;;2.83;1.47;;;15.20;88.00;;;;;;5058259;28;20184;-73
2022/09/09 00:05:26;;;;;;;5.03;2.00;;;15.30;88.50;;;;;;5070337;28;20269;-74
2022/09/09 00:07:58;;;;;;;4.77;2.27;;;15.30;88.60;;;;;;5071412;28;20179;-74
2022/09/09 00:10:31;;;;;;;5.60;2.37;;;15.30;88.60;;;;;;5067714;28;20236;-73
2022/09/09 00:13:53;;;;;;;5.20;2.20;;;15.30;88.50;;;;;;5055932;28;20253;-74
2022/09/09 00:16:30;;;;;;;5.73;2.13;;;15.20;88.20;;;;;;5056186;28;20306;-75
2022/09/09 00:19:06;;;;;;;6.77;2.50;;;15.30;88.30;;;;;;5064315;28;20179;-75
2022/09/09 00:22:19;;;;;;;6.70;4.47;;;15.40;88.70;;;;;;5065561;28;20237;-75
2022/09/09 00:25:03;;;;;;;6.13;2.53;;;15.50;88.80;;;;;;5058706;28;20287;-75
2022/09/09 00:27:49;;;;;;;5.00;2.50;;;15.40;88.50;;;;;;5063746;28;20183;-74
2022/09/09 00:30:31;;;;;;;6.23;2.20;;;15.50;88.50;;;;;;5067510;28;20532;-74
2022/09/09 00:33:11;;;;;;;3.70;1.80;;;15.60;88.70;;;;;;5067515;28;20258;-74
2022/09/09 00:36:01;;;;;;;4.73;1.50;;;15.70;88.50;;;;;;5072483;28;20202;-75
2022/09/09 00:39:08;;;;;;;6.20;1.97;;;15.70;88.70;;;;;;5072911;28;20196;-76
2022/09/09 00:41:35;;;;;;;5.10;1.53;;;15.80;88.80;;;;;;5060889;28;20568;-75
2022/09/09 00:44:35;;;;;;;4.63;1.80;;;16.00;88.40;;;;;;5066636;28;20240;-75
2022/09/09 00:47:45;;;;;;;7.47;1.83;;;16.10;88.30;;;;;;5064824;28;20234;-72
2022/09/09 00:50:18;;;;;;;5.43;1.77;;;16.20;87.70;;;;;;5065952;28;20181;-74
2022/09/09 00:52:53;;;;;;;3.87;1.73;;;16.00;87.20;;;;;;5072891;28;20215;-76
2022/09/09 00:55:26;;;;;;;4.40;1.80;;;16.10;87.00;;;;;;5058452;28;20197;-76
2022/09/09 00:57:55;;;;;;;9.93;2.23;;;16.10;86.80;;;;;;5062402;28;20187;-75
2022/09/09 01:00:29;;;;;;;11.17;3.03;;;16.20;86.70;;;;;;5093284;28;20215;-74
2022/09/09 01:03:30;;;;;;;6.20;3.40;;;16.30;86.80;;;;;;5086419;28;20208;-75
2022/09/09 01:06:13;;;;;;;8.73;2.33;;;16.30;87.40;;;;;;5079830;28;20181;-74
2022/09/09 01:08:43;;;;;;;2.83;1.40;;;16.30;86.50;;;;;;5076935;28;20199;-75
2022/09/09 01:11:48;;;;;;;15.60;2.97;;;16.20;86.10;;;;;;5054127;28;20207;-74
2022/09/09 01:14:30;;;;;;;4.53;1.80;;;16.30;85.70;;;;;;5060660;28;20238;-75
2022/09/09 01:17:05;;;;;;;7.37;2.20;;;16.40;86.10;;;;;;5071672;28;20580;-74
2022/09/09 01:19:58;;;;;;;3.13;1.80;;;16.50;86.20;;;;;;5060703;28;20477;-75
2022/09/09 01:22:45;;;;;;;3.67;1.67;;;16.70;85.30;;;;;;5065193;28;20198;-75
2022/09/09 01:25:27;;;;;;;5.83;1.50;;;17.00;84.80;;;;;;5071879;28;20186;-75
2022/09/09 01:28:03;;;;;;;2.57;1.40;;;17.00;84.60;;;;;;5065711;28;20183;-74
2022/09/09 01:30:31;;;;;;;4.13;1.40;;;17.00;83.70;;;;;;5079134;28;20214;-75
2022/09/09 01:33:00;;;;;;;2.43;1.40;;;16.90;81.70;;;;;;5063692;28;20208;-76
2022/09/09 01:35:46;;;;;;;2.53;1.20;;;16.90;82.30;;;;;;5053950;28;20175;-76
2022/09/09 01:38:14;;;;;;;4.53;1.30;;;17.20;82.70;;;;;;5065448;28;20200;-74
2022/09/09 01:40:42;;;;;;;3.70;1.57;;;17.00;81.60;;;;;;5058714;28;20661;-75
2022/09/09 01:43:10;;;;;;;4.40;1.20;;;17.20;82.20;;;;;;5071655;28;20645;-77
2022/09/09 01:45:39;;;;;;;2.20;1.40;;;17.30;81.50;;;;;;5068512;28;20179;-78
2022/09/09 01:48:07;;;;;;;1.77;1.20;;;17.30;80.50;;;;;;5057391;28;20241;-79
2022/09/09 01:50:52;;;;;;;2.83;1.30;;;17.10;79.70;;;;;;5073365;28;20620;-78
2022/09/09 01:53:38;;;;;;;4.13;1.10;;;17.20;80.00;;;;;;5057777;28;20215;-81
2022/09/09 01:56:41;;;;;;;2.50;1.10;;;17.30;79.30;;;;;;5066914;28;20929;-80
2022/09/09 01:59:14;;;;;;;1.73;1.07;;;17.30;80.30;;;;;;5070014;28;20192;-77
2022/09/09 02:01:54;;;;;;;1.83;1.00;;;17.60;78.60;;;;;;5072562;28;20168;-81
2022/09/09 02:04:36;;;;;;;2.23;1.20;;;17.80;78.00;;;;;;5073458;28;20247;-82
2022/09/09 02:07:06;;;;;;;2.33;1.20;;;18.00;76.40;;;;;;5073332;28;20532;-80
2022/09/09 02:09:35;;;;;;;1.13;1.00;;;18.30;76.40;;;;;;5072595;28;20183;-78
2022/09/09 02:12:24;;;;;;;1.80;1.00;;;18.50;76.10;;;;;;5062118;28;20264;-80
2022/09/09 02:14:56;;;;;;;3.73;1.00;;;18.80;75.50;;;;;;5058952;28;20188;-87
2022/09/09 02:17:30;;;;;;;1.03;0.80;;;19.20;73.60;;;;;;5066975;28;20175;-79
2022/09/09 02:20:09;;;;;;;1.57;1.00;;;19.00;71.30;;;;;;5053794;28;20684;-82
2022/09/09 02:22:39;;;;;;;1.93;1.00;;;19.00;72.30;;;;;;5060766;28;20184;-80
2022/09/09 02:25:10;;;;;;;2.03;0.90;;;19.10;71.30;;;;;;5052817;28;20175;-79
2022/09/09 02:27:37;;;;;;;1.50;0.80;;;19.30;73.60;;;;;;5063889;28;20638;-79
2022/09/09 02:30:06;;;;;;;2.47;1.10;;;19.60;69.50;;;;;;5052856;28;20179;-80
2022/09/09 02:32:36;;;;;;;1.97;0.90;;;19.70;68.40;;;;;;5052540;28;20204;-82
2022/09/09 02:35:11;;;;;;;4.57;0.87;;;19.70;68.60;;;;;;5068036;28;20191;-75
2022/09/09 02:37:46;;;;;;;1.13;0.87;;;19.70;69.40;;;;;;5064604;28;20795;-81
2022/09/09 02:40:17;;;;;;;1.30;0.80;;;19.80;68.30;;;;;;5056392;28;20179;-84
2022/09/09 02:42:47;;;;;;;1.30;0.90;;;19.80;68.70;;;;;;5052568;28;20224;-79
2022/09/09 02:45:18;;;;;;;0.97;0.80;;;19.80;66.60;;;;;;5054024;28;20182;-86
2022/09/09 02:47:48;;;;;;;2.20;1.13;;;19.70;66.60;;;;;;5057378;28;20179;-80
2022/09/09 02:50:19;;;;;;;1.40;0.97;;;20.00;68.20;;;;;;5052443;28;20186;-85
2022/09/09 02:53:12;;;;;;;1.10;0.70;;;19.90;66.80;;;;;;5054632;28;20211;-80
2022/09/09 02:55:48;;;;;;;0.73;0.63;;;20.00;67.40;;;;;;5055765;28;20182;-81
2022/09/09 02:58:18;;;;;;;0.83;0.80;;;19.80;66.20;;;;;;5051987;28;20179;-80
2022/09/09 03:00:50;;;;;;;1.20;0.70;;;19.80;66.00;;;;;;5050914;28;20638;-84
2022/09/09 03:03:19;;;;;;;1.50;0.70;;;20.00;68.00;;;;;;5052086;28;20718;-84
2022/09/09 03:05:47;;;;;;;2.20;0.87;;;20.00;66.30;;;;;;5050786;28;20179;-81
2022/09/09 03:08:14;;;;;;;2.73;0.90;;;20.10;65.80;;;;;;5058950;28;20357;-83
2022/09/09 03:10:42;;;;;;;1.23;0.77;;;20.20;64.00;;;;;;5071200;28;20171;-77
2022/09/09 03:13:12;;;;;;;1.53;0.80;;;20.30;63.70;;;;;;5054818;28;20204;-78
2022/09/09 03:15:40;;;;;;;6.77;0.90;;;20.30;64.40;;;;;;5051498;28;20275;-82
2022/09/09 03:18:07;;;;;;;2.70;2.10;;;20.50;63.60;;;;;;5051665;28;20190;-78
2022/09/09 03:20:35;;;;;;;1.57;1.07;;;20.80;64.10;;;;;;5051590;28;20188;-81
2022/09/09 03:23:02;;;;;;;3.30;1.50;;;20.70;64.00;;;;;;5051717;28;20584;-81
2022/09/09 03:25:30;;;;;;;1.63;0.87;;;20.60;64.10;;;;;;5052006;28;20183;-80
2022/09/09 03:27:57;;;;;;;2.93;0.97;;;20.40;64.70;;;;;;5051977;28;20168;-78
2022/09/09 03:30:27;;;;;;;1.03;0.90;;;20.50;63.70;;;;;;5051496;28;20642;-79
2022/09/09 03:32:57;;;;;;;1.37;0.90;;;20.50;64.80;;;;;;5051796;28;20594;-77
2022/09/09 03:35:25;;;;;;;1.13;0.97;;;20.50;63.60;;;;;;5051437;28;20203;-78
2022/09/09 03:37:52;;;;;;;2.03;1.00;;;20.60;63.80;;;;;;5055861;28;20187;-80
2022/09/09 03:40:20;;;;;;;4.43;1.00;;;20.40;64.00;;;;;;5060175;28;20635;-79
2022/09/09 03:42:48;;;;;;;1.73;0.70;;;20.50;64.70;;;;;;5050684;28;20270;-80
2022/09/09 03:45:16;;;;;;;3.77;1.23;;;20.30;64.80;;;;;;5052060;28;20195;-80
2022/09/09 03:47:44;;;;;;;6.30;1.83;;;20.40;65.60;;;;;;5051939;28;20190;-78
2022/09/09 03:50:11;;;;;;;8.17;5.03;;;20.30;68.10;;;;;;5072022;28;20610;-78
2022/09/09 03:52:40;;;;;;;7.20;2.70;;;20.60;69.00;;;;;;5067456;28;20215;-78
2022/09/09 03:55:09;;;;;;;5.13;1.53;;;20.80;69.00;;;;;;5066408;28;20234;-77
2022/09/09 03:57:37;;;;;;;3.40;1.60;;;20.80;69.20;;;;;;5067103;28;20599;-79
2022/09/09 04:00:06;;;;;;;1.70;1.33;;;21.20;67.10;;;;;;5052493;28;20187;-80
2022/09/09 04:02:34;;;;;;;4.17;1.63;;;21.40;66.00;;;;;;5051564;28;20184;-77
2022/09/09 04:05:01;;;;;;;3.47;1.20;;;21.80;64.70;;;;;;5054520;28;20591;-76
2022/09/09 04:07:29;;;;;;;4.40;1.70;;;22.60;61.40;;;;;;5056278;28;20207;-79
2022/09/09 04:09:59;;;;;;;2.77;1.30;;;22.80;60.40;;;;;;5075456;28;20518;-78
2022/09/09 04:12:27;;;;;;;4.47;1.47;;;23.00;59.60;;;;;;5062521;28;20204;-76
2022/09/09 04:14:54;;;;;;;3.73;1.63;;;22.80;60.80;;;;;;5055104;28;20282;-79
2022/09/09 04:17:21;;;;;;;4.53;1.47;;;22.20;64.10;;;;;;5055780;28;20184;-77
2022/09/09 04:19:49;;;;;;;5.40;1.20;;;23.00;60.40;;;;;;5054681;28;20214;-80
2022/09/09 04:22:16;;;;;;;4.70;1.17;;;23.30;59.20;;;;;;5054729;28;20172;-79
2022/09/09 04:24:44;;;;;;;6.63;1.77;;;23.60;58.00;;;;;;5055067;28;20601;-81
2022/09/09 04:27:12;;;;;;;1.97;0.97;;;23.50;57.60;;;;;;5055176;28;20267;-83
2022/09/09 04:29:39;;;;;;;7.23;6.37;;;22.80;59.40;;;;;;5055468;28;20225;-81
2022/09/09 04:32:06;;;;;;;5.47;2.67;;;21.80;62.50;;;;;;5054280;28;20310;-79
2022/09/09 04:34:34;;;;;;;8.00;5.93;;;21.00;65.10;;;;;;5055539;28;20183;-83
2022/09/09 04:37:01;;;;;;;3.47;1.50;;;22.00;61.80;;;;;;5054595;28;20180;-74
2022/09/09 04:39:29;;;;;;;3.67;1.07;;;22.50;60.20;;;;;;5069348;28;20631;-78
2022/09/09 04:41:56;;;;;;;1.57;1.00;;;23.20;60.00;;;;;;5056916;28;20710;-83
2022/09/09 04:44:24;;;;;;;1.73;0.90;;;23.40;57.00;;;;;;5065847;28;20184;-84
2022/09/09 04:46:52;;;;;;;3.57;0.97;;;24.30;54.40;;;;;;5062244;28;20638;-76
2022/09/09 04:49:19;;;;;;;2.90;0.90;;;24.20;53.70;;;;;;5055586;28;20212;-74
2022/09/09 04:51:49;;;;;;;0.90;0.67;;;23.80;52.80;;;;;;5055286;28;20244;-74
2022/09/09 04:54:16;;;;;;;1.07;0.50;;;23.30;54.40;;;;;;5067660;28;20195;-74
2022/09/09 04:56:44;;;;;;;1.60;1.00;;;24.30;51.60;;;;;;5059447;28;20200;-80
2022/09/09 04:59:11;;;;;;;3.37;2.23;;;24.70;50.80;;;;;;5052143;28;20263;-81
2022/09/09 05:01:38;;;;;;;1.53;1.13;;;25.30;49.10;;;;;;5052222;28;20168;-78
2022/09/09 05:04:06;;;;;;;1.87;1.27;;;25.60;48.20;;;;;;5052795;28;20531;-83
2022/09/09 05:06:35;;;;;;;1.37;0.83;;;25.70;48.20;;;;;;5052980;28;20678;-78
2022/09/09 05:09:02;;;;;;;12.43;9.20;;;25.20;49.10;;;;;;5055182;28;20645;-75
2022/09/09 05:11:32;;;;;;;9.67;6.20;;;24.30;51.40;;;;;;5054277;28;20354;-74
2022/09/09 05:13:59;;;;;;;2.43;1.00;;;23.40;54.00;;;;;;5053660;28;20265;-74
2022/09/09 05:16:26;;;;;;;2.37;0.93;;;22.80;56.60;;;;;;5087307;28;20175;-76
2022/09/09 05:18:54;;;;;;;1.13;0.83;;;23.30;54.60;;;;;;5065762;28;20191;-74
2022/09/09 05:21:24;;;;;;;2.40;0.67;;;24.10;53.20;;;;;;5054200;28;20251;-83
2022/09/09 05:23:52;;;;;;;1.47;0.77;;;23.30;53.90;;;;;;5054504;28;20241;-81
2022/09/09 05:26:22;;;;;;;1.17;0.80;;;22.80;55.90;;;;;;5063505;28;20637;-77
2022/09/09 05:28:50;;;;;;;2.77;1.63;;;22.10;57.40;;;;;;5052803;28;20180;-80
2022/09/09 05:31:19;;;;;;;1.60;1.20;;;22.10;58.40;;;;;;5056016;28;20610;-79
2022/09/09 05:33:53;;;;;;;1.70;0.70;;;22.00;58.90;;;;;;5053707;28;20250;-78
2022/09/09 05:36:22;;;;;;;4.03;1.10;;;21.70;59.70;;;;;;5053845;28;20518;-74
2022/09/09 05:38:50;;;;;;;2.57;1.37;;;21.30;62.20;;;;;;5065482;28;20638;-75
2022/09/09 05:41:19;;;;;;;9.30;1.90;;;21.10;65.80;;;;;;5073798;28;20677;-75
2022/09/09 05:43:47;;;;;;;4.97;1.90;;;21.40;65.40;;;;;;5063748;28;20225;-81
2022/09/09 05:46:17;;;;;;;7.47;2.50;;;21.10;66.70;;;;;;5060000;28;20579;-73
2022/09/09 05:48:46;;;;;;;8.23;2.33;;;20.80;68.50;;;;;;5068833;28;20199;-75
2022/09/09 05:51:16;;;;;;;9.93;2.20;;;20.70;68.60;;;;;;5060946;28;20257;-81
2022/09/09 05:53:45;;;;;;;10.53;2.07;;;20.40;69.90;;;;;;5060475;28;20215;-83
2022/09/09 05:56:15;;;;;;;7.40;2.20;;;20.20;70.80;;;;;;5057032;28;20262;-88
2022/09/09 05:58:49;;;;;;;5.70;2.43;;;20.10;71.10;;;;;;5065896;28;20602;-81
2022/09/09 06:01:19;;;;;;;7.00;2.20;;;20.00;71.40;;;;;;5062453;28;20553;-83
2022/09/09 06:03:49;;;;;;;5.97;2.10;;;19.90;72.50;;;;;;5086817;28;20564;-85
2022/09/09 06:06:25;;;;;;;9.40;2.73;;;20.00;72.30;;;;;;5064780;28;20179;-90
2022/09/09 06:08:57;;;;;;;4.37;1.30;;;20.00;72.80;;;;;;5065624;28;20179;-74
2022/09/09 06:11:35;;;;;;;2.23;0.87;;;19.50;64.90;;;;;;5052544;28;20176;-81
2022/09/09 06:14:04;;;;;;;3.40;0.70;;;19.40;62.80;;;;;;5061641;28;20206;-80
2022/09/09 06:16:34;;;;;;;2.60;1.00;;;19.80;61.90;;;;;;5066474;28;20642;-80
2022/09/09 06:19:03;;;;;;;4.20;0.80;;;20.70;60.10;;;;;;5055886;28;20175;-83
2022/09/09 06:21:38;;;;;;;1.17;0.90;;;21.70;58.20;;;;;;5067637;28;20530;-78
2022/09/09 06:24:07;;;;;;;5.63;0.90;;;22.40;56.60;;;;;;5057607;28;21047;-75
2022/09/09 06:26:37;;;;;;;5.83;1.50;;;23.20;56.00;;;;;;5055809;28;20184;-74
2022/09/09 06:29:05;;;;;;;4.97;1.93;;;23.20;59.30;;;;;;5063270;28;20176;-74
2022/09/09 06:31:36;;;;;;;3.53;1.43;;;22.30;64.30;;;;;;5070119;28;20178;-75
2022/09/09 06:34:07;;;;;;;5.13;1.40;;;21.00;68.50;;;;;;5060869;28;20238;-75
2022/09/09 06:36:37;;;;;;;3.20;1.27;;;20.80;69.60;;;;;;5068785;28;20197;-75
2022/09/09 06:39:06;;;;;;;5.20;2.37;;;20.10;71.20;;;;;;5063752;28;20179;-75
2022/09/09 06:41:34;;;;;;;3.10;2.07;;;19.60;72.00;;;;;;5063543;28;20222;-75
2022/09/09 06:44:01;;;;;;;2.20;1.80;;;19.60;72.10;;;;;;5058524;28;20192;-76
2022/09/09 06:46:32;;;;;;;2.30;1.37;;;20.40;70.70;;;;;;5061207;28;20182;-77
2022/09/09 06:49:00;;;;;;;1.80;1.30;;;21.30;66.50;;;;;;5072036;28;20282;-76
2022/09/09 06:51:33;;;;;;;2.40;1.47;;;21.80;64.80;;;;;;5066310;28;20176;-78
2022/09/09 06:54:02;;;;;;;3.47;1.47;;;22.40;62.80;;;;;;5062892;28;20571;-79
2022/09/09 06:56:31;;;;;;;1.90;1.40;;;22.60;60.70;;;;;;5059993;28;20211;-75
2022/09/09 06:59:03;;;;;;;4.67;1.60;;;21.80;63.20;;;;;;5051946;28;20184;-77
2022/09/09 07:01:33;;;;;;;4.33;1.90;;;20.90;66.90;;;;;;5069097;28;20183;-77
2022/09/09 07:04:03;;;;;;;7.60;2.43;;;20.70;69.40;;;;;;5063274;28;20286;-77
2022/09/09 07:06:34;;;;;;;6.57;2.60;;;20.20;72.30;;;;;;5055413;28;20261;-76
2022/09/09 07:09:04;;;;;;;10.97;3.10;;;19.70;74.40;;;;;;5062766;28;20192;-76
2022/09/09 07:11:34;;;;;;;13.10;3.30;;;19.50;75.90;;;;;;5057926;28;20175;-76
2022/09/09 07:14:01;;;;;;;6.80;3.33;;;19.20;77.30;;;;;;5054502;28;20731;-77
2022/09/09 07:16:31;;;;;;;11.27;3.57;;;18.90;78.50;;;;;;5058180;28;20195;-77
2022/09/09 07:19:00;;;;;;;9.47;2.57;;;18.90;78.90;;;;;;5051493;28;20187;-77
2022/09/09 07:21:29;;;;;;;10.40;3.50;;;18.80;79.00;;;;;;5052050;28;20597;-76
2022/09/09 07:23:58;;;;;;;9.27;2.93;;;18.70;79.40;;;;;;5051461;28;20194;-77
2022/09/09 07:26:27;;;;;;;10.60;3.30;;;18.40;79.20;;;;;;5056180;28;20229;-76
2022/09/09 07:28:58;;;;;;;8.03;2.50;;;18.30;79.60;;;;;;5054827;28;20172;-75
2022/09/09 07:31:35;;;;;;;7.23;2.67;;;18.20;80.10;;;;;;5058042;28;20175;-76
2022/09/09 07:34:04;;;;;;;9.67;2.50;;;18.10;80.20;;;;;;5062233;28;20241;-76
2022/09/09 07:36:37;;;;;;;7.23;2.13;;;18.00;80.40;;;;;;5059245;28;20171;-75
2022/09/09 07:39:08;;;;;;;7.40;2.37;;;17.90;80.50;;;;;;5064874;28;20623;-76
2022/09/09 07:41:39;;;;;;;8.67;3.13;;;17.80;80.60;;;;;;5072819;28;20246;-77
2022/09/09 07:44:15;;;;;;;6.70;2.47;;;17.80;80.80;;;;;;5069269;28;20229;-75
2022/09/09 07:46:44;;;;;;;15.47;3.17;;;17.70;81.00;;;;;;5057516;28;20187;-76
2022/09/09 07:49:12;;;;;;;5.90;2.73;;;17.60;81.70;;;;;;5079072;28;20186;-75
2022/09/09 07:51:42;;;;;;;12.00;3.50;;;17.50;82.00;;;;;;5071295;28;20175;-77
2022/09/09 07:54:12;;;;;;;12.20;3.40;;;17.50;82.30;;;;;;5064762;28;20215;-77
2022/09/09 07:56:41;;;;;;;9.23;3.23;;;17.40;82.20;;;;;;5054670;28;20203;-77
2022/09/09 07:59:10;;;;;;;8.63;3.17;;;17.30;82.60;;;;;;5063971;28;20270;-76
2022/09/09 08:01:39;;;;;;;8.60;2.67;;;17.30;82.50;;;;;;5061935;28;20203;-78
2022/09/09 08:04:12;;;;;;;12.33;3.30;;;17.30;82.50;;;;;;5065620;28;20176;-77
2022/09/09 08:06:41;;;;;;;13.80;2.80;;;17.20;82.80;;;;;;5055015;28;20208;-77
2022/09/09 08:09:10;;;;;;;10.70;3.33;;;17.20;82.80;;;;;;5058762;28;20650;-77
2022/09/09 08:11:39;;;;;;;11.13;2.97;;;17.20;83.10;;;;;;5067774;28;20562;-76
2022/09/09 08:14:07;;;;;;;9.10;3.03;;;17.20;83.10;;;;;;5054453;28;20679;-78
2022/09/09 08:16:38;;;;;;;11.00;3.60;;;17.10;83.10;;;;;;5076197;28;20183;-79
2022/09/09 08:19:07;;;;;;;13.70;3.40;;;17.10;83.60;;;;;;5062034;28;20216;-76
2022/09/09 08:21:36;;;;;;;12.83;3.53;;;17.10;83.80;;;;;;5054906;28;20498;-78
2022/09/09 08:24:05;;;;;;;7.67;3.50;;;17.00;83.80;;;;;;5053914;28;20179;-79
2022/09/09 08:26:36;;;;;;;16.07;4.63;;;17.00;84.10;;;;;;5054271;28;20630;-76
2022/09/09 08:29:05;;;;;;;11.80;4.03;;;16.90;84.30;;;;;;5054262;28;20192;-80
2022/09/09 08:31:35;;;;;;;12.90;3.33;;;16.90;84.10;;;;;;5054623;28;20258;-78
2022/09/09 08:34:07;;;;;;;14.07;3.43;;;16.90;84.20;;;;;;5057717;28;20218;-79
2022/09/09 08:36:38;;;;;;;11.67;3.90;;;16.80;84.20;;;;;;5062629;28;20490;-76
2022/09/09 08:39:08;;;;;;;7.23;3.43;;;16.80;84.30;;;;;;5060915;28;20318;-77
2022/09/09 08:41:54;;;;;;;10.73;3.30;;;16.80;84.30;;;;;;5053201;28;20227;-78
2022/09/09 08:44:31;;;;;;;6.27;2.80;;;16.80;83.80;;;;;;5053411;28;20175;-76
2022/09/09 08:47:04;;;;;;;8.87;3.37;;;16.80;83.70;;;;;;5054246;28;20179;-77
2022/09/09 08:50:13;;;;;;;7.60;3.17;;;16.80;83.40;;;;;;5065546;28;20191;-76
2022/09/09 08:52:54;;;;;;;9.23;2.83;;;16.80;82.10;;;;;;5060760;28;20294;-79
2022/09/09 08:55:28;;;;;;;8.50;2.83;;;16.80;81.20;;;;;;5053606;28;20180;-80
2022/09/09 08:58:00;;;;;;;9.97;2.70;;;16.90;80.20;;;;;;5057421;28;20285;-83
2022/09/09 09:01:16;;;;;;;5.83;2.60;;;16.90;78.80;;;;;;5060853;28;20179;-85
2022/09/09 09:03:53;;;;;;;6.90;3.47;;;16.90;78.40;;;;;;5069582;28;20190;-81
2022/09/09 09:06:39;;;;;;;7.07;3.10;;;16.90;77.50;;;;;;5067014;28;20182;-78
2022/09/09 09:09:09;;;;;;;5.17;2.90;;;17.00;76.30;;;;;;5065840;28;20274;-79
2022/09/09 09:11:42;;;;;;;3.40;2.30;;;16.90;76.30;;;;;;5054010;28;20274;-76
2022/09/09 09:14:25;;;;;;;3.80;2.20;;;16.90;75.90;;;;;;5053917;28;20234;-75
2022/09/09 09:17:03;;;;;;;6.47;2.00;;;16.90;75.40;;;;;;5054136;28;20198;-82
2022/09/09 09:19:33;;;;;;;7.30;2.80;;;16.80;76.30;;;;;;5054453;28;20178;-82
2022/09/09 09:22:22;;;;;;;6.83;1.90;;;16.80;77.00;;;;;;5063151;28;20182;-84
2022/09/09 09:25:19;;;;;;;4.53;2.00;;;16.60;77.30;;;;;;5068229;28;20543;-80
2022/09/09 09:28:01;;;;;;;4.57;1.90;;;16.40;78.00;;;;;;5075910;28;20254;-75
2022/09/09 09:30:58;;;;;;;2.40;1.80;;;16.40;77.90;;;;;;5053783;28;20253;-82
2022/09/09 09:33:37;;;;;;;5.00;2.00;;;16.40;77.90;;;;;;5054470;28;20234;-79
2022/09/09 09:36:07;;;;;;;3.40;1.90;;;16.40;77.40;;;;;;5053655;28;20632;-81
2022/09/09 09:38:39;;;;;;;2.80;1.30;;;16.30;76.70;;;;;;5062533;28;20173;-76
2022/09/09 09:41:07;;;;;;;4.33;1.70;;;16.40;75.80;;;;;;5076354;28;20215;-82
2022/09/09 09:43:37;;;;;;;2.10;1.60;;;16.40;75.60;;;;;;5079437;28;20656;-77
2022/09/09 09:46:23;;;;;;;3.10;1.50;;;16.40;75.20;;;;;;5070164;28;20216;-83
2022/09/09 09:49:10;;;;;;;3.83;1.80;;;16.40;75.00;;;;;;5058228;28;20643;-75
2022/09/09 09:51:40;;;;;;;5.03;1.60;;;16.30;75.10;;;;;;5066605;28;20692;-84
2022/09/09 09:54:38;;;;;;;2.10;1.43;;;16.30;74.90;;;;;;5068715;28;20218;-86
2022/09/09 09:57:13;;;;;;;3.00;1.60;;;16.30;75.00;;;;;;5068602;28;20265;-82
2022/09/09 09:59:41;;;;;;;2.40;1.50;;;16.30;74.90;;;;;;5053186;28;20229;-74
2022/09/09 10:02:16;;;;;;;3.03;1.80;;;16.20;75.00;;;;;;5060756;28;20181;-83
2022/09/09 10:04:45;;;;;;;5.03;1.83;;;16.20;75.20;;;;;;5061541;28;20728;-85
2022/09/09 10:07:30;;;;;;;2.87;1.67;;;16.20;75.10;;;;;;5053444;28;20706;-74
2022/09/09 10:09:58;;;;;;;5.03;2.03;;;16.10;74.50;;;;;;5052862;28;20260;-74
2022/09/09 10:12:38;;;;;;;4.47;2.13;;;16.20;74.60;;;;;;5052234;28;20659;-79
2022/09/09 10:15:27;;;;;;;3.00;1.83;;;16.20;74.40;;;;;;5055869;28;20280;-77
2022/09/09 10:18:02;;;;;;;3.47;1.93;;;16.20;74.00;;;;;;5060142;28;20539;-77
2022/09/09 10:21:07;;;;;;;2.90;1.60;;;16.20;74.10;;;;;;5058998;28;20638;-79
2022/09/09 10:23:56;;;;;;;3.10;1.83;;;16.20;73.40;;;;;;5069706;28;20184;-77
2022/09/09 10:26:53;;;;;;;4.73;2.07;;;16.10;73.40;;;;;;5065773;28;20530;-78
2022/09/09 10:29:43;;;;;;;7.77;3.87;;;16.10;74.20;;;;;;5056690;28;20584;-81
2022/09/09 10:32:41;;;;;;;13.00;5.67;;;16.00;74.10;;;;;;5064727;28;20577;-77
2022/09/09 10:35:15;;;;;;;3.50;2.40;;;16.00;74.40;;;;;;5066211;28;20603;-85
2022/09/09 10:38:14;;;;;;;3.60;1.90;;;16.00;75.20;;;;;;5054546;28;20197;-78
2022/09/09 10:40:56;;;;;;;2.93;2.00;;;15.90;75.60;;;;;;5051438;28;20202;-75
2022/09/09 10:43:47;;;;;;;3.43;1.60;;;15.80;75.60;;;;;;5079482;28;20192;-84
2022/09/09 10:46:33;;;;;;;2.67;1.97;;;15.70;75.50;;;;;;5072433;28;20591;-83
2022/09/09 10:49:40;;;;;;;2.80;1.70;;;15.70;76.40;;;;;;5064132;28;20184;-84
2022/09/09 10:52:22;;;;;;;1.83;1.40;;;15.70;75.80;;;;;;5055580;28;20196;-82
2022/09/09 10:55:02;;;;;;;3.13;1.53;;;15.70;75.20;;;;;;5052321;28;20183;-85
2022/09/09 10:57:40;;;;;;;4.70;1.90;;;15.70;74.80;;;;;;5055846;28;20205;-81
2022/09/09 11:00:19;;;;;;;2.93;1.63;;;15.70;74.80;;;;;;5063833;28;20234;-84
2022/09/09 11:03:12;;;;;;;2.13;1.60;;;15.70;74.60;;;;;;5060024;28;20189;-86
2022/09/09 11:05:52;;;;;;;2.20;1.30;;;15.70;74.80;;;;;;5051477;28;20169;-83
2022/09/09 11:08:29;;;;;;;1.80;1.40;;;15.70;74.50;;;;;;5059014;28;20179;-84
2022/09/09 11:11:17;;;;;;;2.60;1.70;;;15.70;74.10;;;;;;5052981;28;20190;-84
2022/09/09 11:13:56;;;;;;;1.70;1.60;;;15.70;74.50;;;;;;5078598;28;20211;-85
2022/09/09 11:16:45;;;;;;;1.93;1.40;;;15.70;74.90;;;;;;5069642;28;20612;-81
2022/09/09 11:19:27;;;;;;;2.13;1.50;;;15.70;74.90;;;;;;5057932;28;20654;-83
2022/09/09 11:21:58;;;;;;;3.87;1.57;;;15.70;74.90;;;;;;5063977;28;20528;-86
2022/09/09 11:24:45;;;;;;;1.37;1.27;;;15.70;75.20;;;;;;5064760;28;20213;-80
2022/09/09 11:27:26;;;;;;;3.13;1.33;;;15.70;74.50;;;;;;5064352;28;20182;-87
2022/09/09 11:30:19;;;;;;;1.97;1.50;;;15.70;74.30;;;;;;5065207;28;20521;-85
2022/09/09 11:32:55;;;;;;;3.97;1.30;;;15.80;73.90;;;;;;5055385;28;20261;-82
2022/09/09 11:35:34;;;;;;;2.47;1.70;;;15.80;73.90;;;;;;5055555;28;20179;-85
2022/09/09 11:38:14;;;;;;;2.10;1.43;;;15.80;74.50;;;;;;5062739;28;20665;-82
2022/09/09 11:40:43;;;;;;;1.50;1.40;;;15.70;74.60;;;;;;5071046;28;20188;-78
2022/09/09 11:43:21;;;;;;;1.63;1.17;;;15.70;74.30;;;;;;5057295;28;20665;-85
2022/09/09 11:45:58;;;;;;;3.70;1.53;;;15.80;73.20;;;;;;5080377;28;20591;-82
2022/09/09 11:48:38;;;;;;;2.90;1.57;;;16.00;72.60;;;;;;5063386;28;20663;-80
2022/09/09 11:51:25;;;;;;;1.20;1.03;;;16.10;72.00;;;;;;5071886;28;20716;-83
2022/09/09 11:53:55;;;;;;;3.10;1.40;;;16.20;71.60;;;;;;5081138;28;20288;-73
2022/09/09 11:56:45;;;;;;;1.73;1.20;;;16.20;71.60;;;;;;5068728;28;20604;-77
2022/09/09 11:59:30;;;;;;;1.33;1.23;;;16.20;71.50;;;;;;5068478;28;20672;-85
2022/09/09 12:02:02;;;;;;;1.20;1.10;;;16.20;71.50;;;;;;5064529;28;20179;-77
2022/09/09 12:04:40;;;;;;;1.47;1.00;;;16.20;71.50;;;;;;5071920;28;20182;-85
2022/09/09 12:07:11;;;;;;;1.73;1.37;;;16.20;71.50;;;;;;5067093;28;20178;-77
2022/09/09 12:09:51;;;;;;;1.37;1.07;;;16.10;71.20;;;;;;5073138;28;20177;-79
2022/09/09 12:12:37;;;;;;;1.30;0.93;;;16.10;71.00;;;;;;5076336;28;20177;-83
2022/09/09 12:15:10;;;;;;;1.27;1.00;;;16.20;70.80;;;;;;5059580;28;20530;-81
2022/09/09 12:17:46;;;;;;;1.10;0.97;;;16.20;70.30;;;;;;5054868;28;20168;-76
2022/09/09 12:20:32;;;;;;;2.17;1.00;;;16.20;70.60;;;;;;5067501;28;20185;-78
2022/09/09 12:23:12;;;;;;;1.13;0.93;;;16.20;71.90;;;;;;5055258;28;20209;-84
2022/09/09 12:26:02;;;;;;;1.40;1.30;;;16.20;70.80;;;;;;5053272;28;20195;-85
2022/09/09 12:28:51;;;;;;;2.03;1.23;;;16.20;71.70;;;;;;5067930;28;20581;-78
2022/09/09 12:31:28;;;;;;;4.57;1.70;;;16.10;72.20;;;;;;5066333;28;20593;-83
2022/09/09 12:33:55;;;;;;;2.33;1.10;;;16.10;72.90;;;;;;5059783;28;20214;-86
2022/09/09 12:36:33;;;;;;;1.50;1.20;;;16.10;72.40;;;;;;5063835;28;20225;-82
2022/09/09 12:39:20;;;;;;;2.73;1.20;;;16.00;72.90;;;;;;5063127;28;20526;-85
2022/09/09 12:41:56;;;;;;;1.37;0.90;;;16.00;73.30;;;;;;5054295;28;20222;-85
2022/09/09 12:44:27;;;;;;;1.10;1.00;;;15.90;73.10;;;;;;5065230;28;20647;-79
2022/09/09 12:46:57;;;;;;;1.20;0.90;;;15.90;73.70;;;;;;5055036;28;20227;-75
2022/09/09 12:49:40;;;;;;;1.30;1.20;;;15.80;72.90;;;;;;5054656;28;20170;-76
2022/09/09 12:52:34;;;;;;;1.27;0.90;;;15.90;72.40;;;;;;5054751;28;20223;-85
2022/09/09 12:55:04;;;;;;;1.10;1.00;;;15.90;72.60;;;;;;5050829;28;20206;-81
2022/09/09 12:57:37;;;;;;;2.60;0.90;;;16.00;72.20;;;;;;5066010;28;20182;-77
2022/09/09 13:00:25;;;;;;;1.00;0.80;;;16.00;71.90;;;;;;5054057;28;20722;-78
2022/09/09 13:02:56;;;;;;;2.17;0.90;;;16.00;71.10;;;;;;5063068;28;20527;-82
2022/09/09 13:05:36;;;;;;;0.90;0.90;;;16.20;69.10;;;;;;5072834;28;20185;-79
2022/09/09 13:08:06;;;;;;;1.23;0.80;;;16.30;68.20;;;;;;5059574;28;20177;-82
2022/09/09 13:10:46;;;;;;;2.47;2.03;;;16.30;68.00;;;;;;5054815;28;20511;-78
2022/09/09 13:13:41;;;;;;;1.17;0.80;;;16.30;67.00;;;;;;5053385;28;20207;-76
2022/09/09 13:16:22;;;;;;;0.80;0.80;;;16.30;67.00;;;;;;5053862;28;20683;-80
2022/09/09 13:18:50;;;;;;;0.80;0.80;;;16.40;66.50;;;;;;5065289;28;20180;-75
2022/09/09 13:21:18;;;;;;;0.87;0.80;;;16.40;66.50;;;;;;5062161;28;20511;-76
2022/09/09 13:23:51;;;;;;;3.03;0.70;;;16.40;66.30;;;;;;5056774;28;20190;-79
2022/09/09 13:26:26;;;;;;;2.40;0.70;;;16.40;66.50;;;;;;5053513;28;20181;-76
2022/09/09 13:29:08;;;;;;;0.73;0.70;;;16.50;65.90;;;;;;5053608;28;20235;-83